createdAt,value
2023-01-18T00:00:31.977Z,92208.00
2023-01-18T00:01:31.970Z,92208.00
2023-01-18T00:02:31.900Z,92210.00
2023-01-18T00:03:31.942Z,92212.00
2023-01-18T00:04:31.883Z,92212.00
2023-01-18T00:05:31.880Z,92210.00
2023-01-18T00:06:31.886Z,92210.00
2023-01-18T00:07:31.849Z,92212.00
2023-01-18T00:08:31.903Z,92208.00
2023-01-18T00:55:32.333Z,92210.00
2023-01-18T00:56:33.208Z,92208.00
2023-01-18T00:57:33.198Z,92210.00
2023-01-18T00:58:33.195Z,92212.00
2023-01-18T00:59:33.183Z,92212.00
2023-01-18T01:00:33.287Z,92214.00
2023-01-18T01:01:33.279Z,92212.00
2023-01-18T01:02:33.246Z,92212.00
2023-01-18T01:03:33.146Z,92212.00
2023-01-18T01:04:33.142Z,92214.00
2023-01-18T01:05:33.133Z,92214.00
2023-01-18T01:06:33.152Z,92214.00
2023-01-18T01:07:33.129Z,92216.00
2023-01-18T01:08:33.143Z,92216.00
2023-01-18T01:09:33.096Z,92218.00
2023-01-18T01:10:33.091Z,92220.00
2023-01-18T01:11:33.177Z,92222.00
2023-01-18T01:12:33.069Z,92222.00
2023-01-18T01:13:33.074Z,92222.00
2023-01-18T01:14:33.054Z,92222.00
2023-01-18T01:15:33.112Z,92225.00
2023-01-18T01:16:33.100Z,92222.00
2023-01-18T01:17:33.030Z,92222.00
2023-01-18T01:18:33.018Z,92225.00
2023-01-18T01:19:33.008Z,92223.00
2023-01-18T01:20:33.014Z,92225.00
2023-01-18T01:21:32.992Z,92225.00
2023-01-18T01:22:32.987Z,92227.00
2023-01-18T01:23:32.981Z,92229.00
2023-01-18T01:24:32.963Z,92229.00
2023-01-18T01:25:32.952Z,92231.00
2023-01-18T01:26:32.945Z,92231.00
2023-01-18T01:27:32.975Z,92235.00
2023-01-18T01:28:32.941Z,92235.00
2023-01-18T01:29:32.923Z,92233.00
2023-01-18T01:30:32.927Z,92235.00
2023-01-18T01:31:32.905Z,92235.00
2023-01-18T01:32:32.891Z,92233.00
2023-01-18T01:33:32.883Z,92235.00
2023-01-18T01:34:32.908Z,92235.00
2023-01-18T01:35:32.865Z,92241.00
2023-01-18T01:36:32.867Z,92239.00
2023-01-18T01:37:32.850Z,92239.00
2023-01-18T01:38:32.847Z,92239.00
2023-01-18T01:39:32.831Z,92243.00
2023-01-18T01:40:32.823Z,92249.00
2023-01-18T01:41:32.844Z,92249.00
2023-01-18T01:42:32.801Z,92253.00
2023-01-18T01:43:32.827Z,92253.00
2023-01-18T01:44:32.790Z,92255.00
2023-01-18T01:45:32.807Z,92255.00
2023-01-18T01:46:32.766Z,92253.00
2023-01-18T01:47:32.760Z,92257.00
2023-01-18T01:48:32.759Z,92259.00
2023-01-18T01:49:32.755Z,92259.00
2023-01-18T01:50:32.740Z,92261.00
2023-01-18T01:51:32.725Z,92261.00
2023-01-18T01:52:32.748Z,92263.00
2023-01-18T01:53:32.708Z,92261.00
2023-01-18T01:54:32.741Z,92261.00
2023-01-18T01:55:32.692Z,92263.00
2023-01-18T01:56:32.676Z,92261.00
2023-01-18T01:57:32.673Z,92261.00
2023-01-18T01:58:32.661Z,92261.00
2023-01-18T01:59:32.683Z,92263.00
2023-01-18T02:00:32.653Z,92265.00
2023-01-18T02:01:32.771Z,92263.00
2023-01-18T02:02:32.783Z,92267.00
2023-01-18T02:03:32.623Z,92265.00
2023-01-18T02:04:32.621Z,92265.00
2023-01-18T02:05:32.598Z,92265.00
2023-01-18T02:06:32.598Z,92265.00
2023-01-18T02:07:32.590Z,92267.00
2023-01-18T02:08:32.579Z,92267.00
2023-01-18T02:09:32.562Z,92267.00
2023-01-18T02:10:32.557Z,92265.00
2023-01-18T02:11:32.547Z,92267.00
2023-01-18T02:12:32.547Z,92265.00
2023-01-18T02:13:32.528Z,92269.00
2023-01-18T02:14:32.525Z,92267.00
2023-01-18T02:15:32.535Z,92267.00
2023-01-18T02:16:32.512Z,92267.00
2023-01-18T02:17:32.564Z,92267.00
2023-01-18T02:18:32.517Z,92269.00
2023-01-18T02:19:32.479Z,92269.00
2023-01-18T02:20:32.473Z,92267.00
2023-01-18T02:21:32.461Z,92270.00
2023-01-18T02:22:32.484Z,92269.00
2023-01-18T02:23:32.447Z,92269.00
2023-01-18T02:24:32.444Z,92269.00
2023-01-18T02:25:32.426Z,92269.00
2023-01-18T02:26:32.410Z,92269.00
2023-01-18T02:27:32.404Z,92270.00
2023-01-18T02:28:32.404Z,92270.00
2023-01-18T02:29:32.388Z,92270.00
2023-01-18T02:30:32.404Z,92272.00
2023-01-18T02:31:32.393Z,92274.00
2023-01-18T02:32:32.359Z,92274.00
2023-01-18T02:33:32.354Z,92274.00
2023-01-18T02:34:32.347Z,92276.00
2023-01-18T02:35:32.336Z,92276.00
2023-01-18T02:36:32.337Z,92278.00
2023-01-18T02:37:32.332Z,92276.00
2023-01-18T02:38:32.305Z,92278.00
2023-01-18T02:39:32.337Z,92278.00
2023-01-18T02:40:32.301Z,92278.00
2023-01-18T02:41:32.298Z,92274.00
2023-01-18T02:42:32.270Z,92278.00
2023-01-18T02:43:32.264Z,92274.00
2023-01-18T02:44:32.253Z,92274.00
2023-01-18T02:45:34.938Z,92276.00
2023-01-18T02:46:32.240Z,92276.00
2023-01-18T02:47:32.268Z,92278.00
2023-01-18T02:48:32.219Z,92276.00
2023-01-18T02:49:32.235Z,92276.00
2023-01-18T02:50:32.216Z,92278.00
2023-01-18T02:51:32.187Z,92280.00
2023-01-18T02:52:32.182Z,92280.00
2023-01-18T02:53:32.169Z,92280.00
2023-01-18T02:54:32.169Z,92278.00
2023-01-18T02:55:32.167Z,92280.00
2023-01-18T02:56:32.164Z,92278.00
2023-01-18T02:57:32.165Z,92278.00
2023-01-18T02:58:32.134Z,92278.00
2023-01-18T02:59:32.142Z,92278.00
2023-01-18T03:00:32.118Z,92278.00
2023-01-18T03:01:32.194Z,92280.00
2023-01-18T03:02:32.129Z,92282.00
2023-01-18T03:03:32.113Z,92282.00
2023-01-18T03:04:32.072Z,92282.00
2023-01-18T03:05:32.068Z,92282.00
2023-01-18T03:06:32.054Z,92286.00
2023-01-18T03:07:32.049Z,92282.00
2023-01-18T03:08:32.035Z,92284.00
2023-01-18T03:09:32.032Z,92286.00
2023-01-18T03:10:32.029Z,92286.00
2023-01-18T03:11:32.025Z,92286.00
2023-01-18T03:12:32.014Z,92288.00
2023-01-18T03:13:31.993Z,92290.00
2023-01-18T03:14:32.015Z,92290.00
2023-01-18T03:15:32.003Z,92292.00
2023-01-18T03:16:31.968Z,92294.00
2023-01-18T03:17:31.966Z,92296.00
2023-01-18T03:18:31.957Z,92300.00
2023-01-18T03:19:31.987Z,92302.00
2023-01-18T03:20:31.930Z,92304.00
2023-01-18T03:21:31.926Z,92304.00
2023-01-18T03:22:31.920Z,92304.00
2023-01-18T03:23:31.940Z,92310.00
2023-01-18T03:24:31.923Z,92310.00
2023-01-18T03:25:31.908Z,92308.00
2023-01-18T03:26:31.940Z,92310.00
2023-01-18T03:27:31.875Z,92308.00
2023-01-18T03:28:31.864Z,92310.00
2023-01-18T03:29:31.884Z,92308.00
2023-01-18T03:30:31.849Z,92312.00
2023-01-18T03:31:31.841Z,92310.00
2023-01-18T03:32:31.827Z,92312.00
2023-01-18T03:33:31.822Z,92312.00
2023-01-18T03:34:31.817Z,92314.00
2023-01-18T03:35:31.827Z,92316.00
2023-01-18T03:36:31.809Z,92317.00
2023-01-18T03:37:31.796Z,92319.00
2023-01-18T03:38:31.775Z,92319.00
2023-01-18T03:39:31.767Z,92321.00
2023-01-18T03:41:31.762Z,92323.00
2023-01-18T03:43:31.726Z,92321.00
2023-01-18T03:44:31.717Z,92321.00
2023-01-18T03:46:31.746Z,92321.00
2023-01-18T03:47:31.694Z,92331.00
2023-01-18T03:48:31.683Z,92323.00
2023-01-18T03:50:31.669Z,92321.00
2023-01-18T03:51:31.686Z,92321.00
2023-01-18T03:53:31.638Z,92321.00
2023-01-18T03:57:31.602Z,92331.00
2023-01-18T04:03:31.549Z,92343.00
2023-01-18T04:09:31.495Z,92345.00
2023-01-18T04:47:31.166Z,92349.00
2023-01-18T06:01:30.591Z,92413.00
2023-01-18T06:24:30.290Z,92447.00
2023-01-18T06:30:30.231Z,92456.00
2023-01-18T06:35:30.189Z,92468.00
2023-01-18T06:43:30.163Z,92486.00
2023-01-18T06:51:30.051Z,92492.00
2023-01-18T07:09:30.923Z,92513.00
2023-01-18T07:38:29.685Z,92554.00
2023-01-18T07:42:30.007Z,92564.00
2023-01-18T07:45:29.677Z,92570.00
2023-01-18T07:49:29.530Z,92578.00
2023-01-18T07:50:29.676Z,92576.00
2023-01-18T07:51:29.627Z,92580.00
2023-01-18T07:52:29.815Z,92580.00
2023-01-18T07:53:29.542Z,92587.00
2023-01-18T07:54:29.511Z,92587.00
2023-01-18T07:55:29.754Z,92589.00
2023-01-18T07:56:29.906Z,92589.00
2023-01-18T07:57:29.715Z,92589.00
2023-01-18T07:58:29.491Z,92591.00
2023-01-18T07:59:29.472Z,92593.00
2023-01-18T08:00:29.718Z,92589.00
2023-01-18T08:01:29.532Z,92591.00
2023-01-18T08:02:30.935Z,92591.00
2023-01-18T08:03:29.510Z,92593.00
2023-01-18T08:04:30.604Z,92593.00
2023-01-18T08:05:30.155Z,92595.00
2023-01-18T08:07:30.441Z,92595.00
2023-01-18T08:08:29.533Z,92595.00
2023-01-18T08:09:29.469Z,92593.00
2023-01-18T08:10:30.450Z,92593.00
2023-01-18T08:11:29.724Z,92597.00
2023-01-18T08:12:29.409Z,92597.00
2023-01-18T08:13:29.402Z,92599.00
2023-01-18T08:14:29.719Z,92601.00
2023-01-18T08:15:29.445Z,92605.00
2023-01-18T08:16:30.362Z,92607.00
2023-01-18T08:17:29.376Z,92609.00
2023-01-18T08:18:29.430Z,92609.00
2023-01-18T08:19:29.720Z,92607.00
2023-01-18T08:20:29.347Z,92609.00
2023-01-18T08:21:29.723Z,92613.00
2023-01-18T08:22:29.341Z,92611.00
2023-01-18T08:23:29.340Z,92611.00
2023-01-18T08:24:30.472Z,92609.00
2023-01-18T08:25:29.260Z,92609.00
2023-01-18T08:26:29.728Z,92609.00
2023-01-18T08:27:29.260Z,92609.00
2023-01-18T08:28:29.254Z,92611.00
2023-01-18T08:29:29.269Z,92611.00
2023-01-18T08:30:29.250Z,92611.00
2023-01-18T08:32:29.203Z,92611.00
2023-01-18T08:33:30.246Z,92615.00
2023-01-18T08:35:29.228Z,92619.00
2023-01-18T08:36:29.228Z,92621.00
2023-01-18T08:37:29.226Z,92621.00
2023-01-18T08:38:29.182Z,92623.00
2023-01-18T08:39:29.186Z,92623.00
2023-01-18T08:40:29.167Z,92627.00
2023-01-18T08:41:29.418Z,92627.00
2023-01-18T08:42:29.147Z,92629.00
2023-01-18T08:43:29.128Z,92629.00
2023-01-18T08:44:30.294Z,92629.00
2023-01-18T08:45:29.109Z,92631.00
2023-01-18T08:46:29.261Z,92631.00
2023-01-18T08:47:29.072Z,92631.00
2023-01-18T08:48:29.106Z,92635.00
2023-01-18T08:49:29.092Z,92641.00
2023-01-18T08:50:29.046Z,92641.00
2023-01-18T08:51:29.199Z,92644.00
2023-01-18T08:52:29.018Z,92646.00
2023-01-18T08:53:29.045Z,92646.00
2023-01-18T08:54:29.087Z,92648.00
2023-01-18T08:55:29.025Z,92646.00
2023-01-18T08:56:28.992Z,92650.00
2023-01-18T08:57:29.237Z,92652.00
2023-01-18T08:58:29.004Z,92648.00
2023-01-18T08:59:29.022Z,92648.00
2023-01-18T09:00:28.979Z,92650.00
2023-01-18T09:01:44.874Z,92656.00
2023-01-18T09:02:29.302Z,92652.00
2023-01-18T09:03:29.242Z,92656.00
2023-01-18T09:04:29.736Z,92656.00
2023-01-18T09:05:28.949Z,92658.00
2023-01-18T09:06:28.930Z,92662.00
2023-01-18T09:07:29.911Z,92666.00
2023-01-18T09:08:29.219Z,92664.00
2023-01-18T09:09:28.902Z,92664.00
2023-01-18T09:10:29.951Z,92668.00
2023-01-18T09:11:28.893Z,92668.00
2023-01-18T09:12:29.256Z,92668.00
2023-01-18T09:13:28.847Z,92668.00
2023-01-18T09:14:29.370Z,92674.00
2023-01-18T09:15:28.855Z,92674.00
2023-01-18T09:16:29.494Z,92674.00
2023-01-18T09:17:29.820Z,92680.00
2023-01-18T09:18:28.885Z,92678.00
2023-01-18T09:19:29.379Z,92684.00
2023-01-18T09:20:28.803Z,92678.00
2023-01-18T09:21:28.962Z,92680.00
2023-01-18T09:22:30.240Z,92686.00
2023-01-18T09:23:28.845Z,92688.00
2023-01-18T09:24:28.906Z,92686.00
2023-01-18T09:25:28.837Z,92691.00
2023-01-18T09:26:28.859Z,92691.00
2023-01-18T09:27:29.251Z,92693.00
2023-01-18T09:28:28.807Z,92697.00
2023-01-18T09:29:28.770Z,92699.00
2023-01-18T09:30:28.779Z,92699.00
2023-01-18T09:31:28.942Z,92701.00
2023-01-18T09:32:29.251Z,92697.00
2023-01-18T09:33:36.879Z,92701.00
2023-01-18T09:34:28.755Z,92703.00
2023-01-18T09:35:28.751Z,92707.00
2023-01-18T09:36:28.742Z,92711.00
2023-01-18T09:37:29.243Z,92711.00
2023-01-18T09:38:28.709Z,92713.00
2023-01-18T09:39:28.702Z,92713.00
2023-01-18T09:40:28.756Z,92717.00
2023-01-18T09:41:28.674Z,92717.00
2023-01-18T09:42:28.887Z,92717.00
2023-01-18T09:43:28.652Z,92717.00
2023-01-18T09:44:28.638Z,92717.00
2023-01-18T09:45:28.622Z,92719.00
2023-01-18T09:46:28.680Z,92721.00
2023-01-18T09:47:28.873Z,92723.00
2023-01-18T09:48:28.631Z,92723.00
2023-01-18T09:49:28.621Z,92725.00
2023-01-18T09:50:28.619Z,92725.00
2023-01-18T09:51:28.599Z,92729.00
2023-01-18T09:52:28.749Z,92727.00
2023-01-18T09:53:28.611Z,92727.00
2023-01-18T09:54:28.569Z,92731.00
2023-01-18T09:55:28.591Z,92731.00
2023-01-18T09:56:28.560Z,92733.00
2023-01-18T09:57:28.558Z,92733.00
2023-01-18T09:58:28.559Z,92735.00
2023-01-18T09:59:28.752Z,92736.00
2023-01-18T10:00:28.777Z,92738.00
2023-01-18T10:01:28.578Z,92738.00
2023-01-18T10:03:28.500Z,92740.00
2023-01-18T10:04:28.875Z,92736.00
2023-01-18T10:05:28.483Z,92735.00
2023-01-18T10:06:28.498Z,92740.00
2023-01-18T10:07:28.767Z,92742.00
2023-01-18T10:08:28.449Z,92742.00
2023-01-18T10:09:28.441Z,92744.00
2023-01-18T10:10:28.441Z,92744.00
2023-01-18T10:11:28.424Z,92744.00
2023-01-18T10:12:28.385Z,92746.00
2023-01-18T10:13:28.757Z,92744.00
2023-01-18T10:14:28.420Z,92744.00
2023-01-18T10:15:28.921Z,92744.00
2023-01-18T10:16:28.444Z,92744.00
2023-01-18T10:17:28.828Z,92748.00
2023-01-18T10:18:28.735Z,92748.00
2023-01-18T10:19:28.364Z,92748.00
2023-01-18T10:20:28.767Z,92750.00
2023-01-18T10:21:28.338Z,92748.00
2023-01-18T10:22:28.317Z,92750.00
2023-01-18T10:23:28.281Z,92752.00
2023-01-18T10:24:28.276Z,92750.00
2023-01-18T10:25:28.732Z,92750.00
2023-01-18T10:26:28.265Z,92750.00
2023-01-18T10:27:28.263Z,92748.00
2023-01-18T10:28:28.731Z,92748.00
2023-01-18T10:29:28.232Z,92746.00
2023-01-18T10:30:28.251Z,92748.00
2023-01-18T10:31:28.305Z,92744.00
2023-01-18T10:32:28.234Z,92744.00
2023-01-18T10:33:28.246Z,92742.00
2023-01-18T10:34:28.191Z,92740.00
2023-01-18T10:35:28.189Z,92733.00
2023-01-18T10:36:28.233Z,92738.00
2023-01-18T10:37:28.161Z,92736.00
2023-01-18T10:38:28.153Z,92735.00
2023-01-18T10:39:28.198Z,92738.00
2023-01-18T10:40:28.237Z,92738.00
2023-01-18T10:41:28.132Z,92736.00
2023-01-18T10:42:28.120Z,92735.00
2023-01-18T10:43:28.103Z,92735.00
2023-01-18T10:44:28.096Z,92735.00
2023-01-18T10:45:28.281Z,92733.00
2023-01-18T10:46:28.099Z,92735.00
2023-01-18T10:47:28.079Z,92733.00
2023-01-18T10:48:28.079Z,92736.00
2023-01-18T10:49:28.053Z,92735.00
2023-01-18T10:50:28.044Z,92736.00
2023-01-18T10:51:28.072Z,92740.00
2023-01-18T10:52:28.025Z,92736.00
2023-01-18T10:53:28.022Z,92738.00
2023-01-18T10:54:28.331Z,92738.00
2023-01-18T10:55:27.996Z,92742.00
2023-01-18T10:56:27.996Z,92740.00
2023-01-18T10:57:27.982Z,92740.00
2023-01-18T10:58:28.239Z,92738.00
2023-01-18T10:59:28.019Z,92740.00
2023-01-18T11:00:27.953Z,92742.00
2023-01-18T11:01:27.992Z,92744.00
2023-01-18T11:02:28.110Z,92748.00
2023-01-18T11:03:28.246Z,92748.00
2023-01-18T11:04:27.971Z,92752.00
2023-01-18T11:05:27.914Z,92752.00
2023-01-18T11:06:27.900Z,92752.00
2023-01-18T11:07:27.890Z,92758.00
2023-01-18T11:08:28.484Z,92762.00
2023-01-18T11:09:27.877Z,92760.00
2023-01-18T11:10:27.867Z,92764.00
2023-01-18T11:11:28.745Z,92766.00
2023-01-18T11:12:28.242Z,92768.00
2023-01-18T11:13:27.864Z,92770.00
2023-01-18T11:14:28.257Z,92772.00
2023-01-18T11:15:27.820Z,92770.00
2023-01-18T11:16:27.816Z,92774.00
2023-01-18T11:17:27.817Z,92772.00
2023-01-18T11:18:27.826Z,92776.00
2023-01-18T11:19:28.277Z,92778.00
2023-01-18T11:20:27.770Z,92778.00
2023-01-18T11:21:27.761Z,92776.00
2023-01-18T11:22:27.756Z,92778.00
2023-01-18T11:23:27.751Z,92780.00
2023-01-18T11:24:27.748Z,92780.00
2023-01-18T11:25:27.752Z,92778.00
2023-01-18T11:26:27.867Z,92783.00
2023-01-18T11:27:27.712Z,92782.00
2023-01-18T11:28:27.732Z,92782.00
2023-01-18T11:29:28.792Z,92782.00
2023-01-18T11:30:27.696Z,92778.00
2023-01-18T11:31:27.724Z,92778.00
2023-01-18T11:32:27.672Z,92778.00
2023-01-18T11:33:27.754Z,92778.00
2023-01-18T11:34:27.678Z,92782.00
2023-01-18T11:35:27.641Z,92783.00
2023-01-18T11:36:27.627Z,92785.00
2023-01-18T11:37:27.625Z,92785.00
2023-01-18T11:38:27.756Z,92785.00
2023-01-18T11:39:27.632Z,92787.00
2023-01-18T11:40:27.602Z,92791.00
2023-01-18T11:41:27.593Z,92787.00
2023-01-18T11:42:27.572Z,92785.00
2023-01-18T11:43:27.756Z,92785.00
2023-01-18T11:44:27.564Z,92783.00
2023-01-18T11:45:27.811Z,92782.00
2023-01-18T11:46:27.594Z,92785.00
2023-01-18T11:47:27.558Z,92783.00
2023-01-18T11:48:27.530Z,92780.00
2023-01-18T11:49:27.527Z,92783.00
2023-01-18T11:50:27.780Z,92782.00
2023-01-18T11:51:27.538Z,92785.00
2023-01-18T11:52:27.759Z,92787.00
2023-01-18T11:53:27.475Z,92785.00
2023-01-18T11:54:27.470Z,92785.00
2023-01-18T11:55:27.464Z,92787.00
2023-01-18T11:56:27.452Z,92789.00
2023-01-18T11:57:27.442Z,92791.00
2023-01-18T11:58:27.425Z,92787.00
2023-01-18T11:59:27.424Z,92791.00
2023-01-18T12:00:27.755Z,92795.00
2023-01-18T12:01:27.420Z,92797.00
2023-01-18T12:02:27.427Z,92795.00
2023-01-18T12:03:27.820Z,92795.00
2023-01-18T12:04:27.376Z,92797.00
2023-01-18T12:05:27.366Z,92797.00
2023-01-18T12:06:27.787Z,92797.00
2023-01-18T12:07:27.779Z,92799.00
2023-01-18T12:08:27.349Z,92799.00
2023-01-18T12:09:27.334Z,92801.00
2023-01-18T12:10:27.757Z,92803.00
2023-01-18T12:11:27.313Z,92807.00
2023-01-18T12:12:27.307Z,92805.00
2023-01-18T12:13:27.774Z,92805.00
2023-01-18T12:14:27.415Z,92807.00
2023-01-18T12:15:27.761Z,92807.00
2023-01-18T12:16:27.330Z,92809.00
2023-01-18T12:17:27.259Z,92815.00
2023-01-18T12:18:27.253Z,92817.00
2023-01-18T12:19:27.235Z,92813.00
2023-01-18T12:20:27.265Z,92821.00
2023-01-18T12:21:27.226Z,92815.00
2023-01-18T12:22:27.242Z,92817.00
2023-01-18T12:23:27.204Z,92817.00
2023-01-18T12:24:27.204Z,92817.00
2023-01-18T12:25:27.187Z,92817.00
2023-01-18T12:26:27.175Z,92821.00
2023-01-18T12:27:28.170Z,92821.00
2023-01-18T12:28:27.156Z,92823.00
2023-01-18T12:29:27.158Z,92823.00
2023-01-18T12:30:27.180Z,92825.00
2023-01-18T12:31:27.140Z,92821.00
2023-01-18T12:32:27.123Z,92821.00
2023-01-18T12:33:42.560Z,92825.00
2023-01-18T12:34:27.109Z,92827.00
2023-01-18T12:35:27.287Z,92825.00
2023-01-18T12:36:27.090Z,92829.00
2023-01-18T12:37:27.079Z,92833.00
2023-01-18T12:38:27.424Z,92833.00
2023-01-18T12:39:27.068Z,92835.00
2023-01-18T12:40:27.062Z,92835.00
2023-01-18T12:41:27.172Z,92846.00
2023-01-18T12:42:27.030Z,92848.00
2023-01-18T12:43:27.889Z,92848.00
2023-01-18T12:44:27.013Z,92848.00
2023-01-18T12:45:27.272Z,92852.00
2023-01-18T12:46:27.060Z,92850.00
2023-01-18T12:47:26.993Z,92844.00
2023-01-18T12:48:27.278Z,92846.00
2023-01-18T12:49:26.975Z,92852.00
2023-01-18T12:50:26.965Z,92854.00
2023-01-18T12:51:26.960Z,92852.00
2023-01-18T12:52:26.946Z,92850.00
2023-01-18T12:53:27.274Z,92852.00
2023-01-18T12:54:26.959Z,92854.00
2023-01-18T12:55:26.965Z,92850.00
2023-01-18T12:56:27.275Z,92852.00
2023-01-18T12:57:26.911Z,92854.00
2023-01-18T12:58:27.279Z,92856.00
2023-01-18T12:59:26.879Z,92856.00
2023-01-18T13:00:26.892Z,92854.00
2023-01-18T13:01:26.989Z,92856.00
2023-01-18T13:02:27.323Z,92856.00
2023-01-18T13:03:26.845Z,92860.00
2023-01-18T13:04:26.838Z,92858.00
2023-01-18T13:05:26.829Z,92860.00
2023-01-18T13:06:26.818Z,92854.00
2023-01-18T13:07:27.276Z,92858.00
2023-01-18T13:08:26.806Z,92854.00
2023-01-18T13:09:26.800Z,92856.00
2023-01-18T13:10:26.835Z,92858.00
2023-01-18T13:11:26.770Z,92858.00
2023-01-18T13:12:26.785Z,92858.00
2023-01-18T13:13:26.754Z,92860.00
2023-01-18T13:14:26.745Z,92858.00
2023-01-18T13:15:26.841Z,92858.00
2023-01-18T13:16:26.728Z,92862.00
2023-01-18T13:17:26.785Z,92864.00
2023-01-18T13:18:26.723Z,92868.00
2023-01-18T13:19:26.699Z,92870.00
2023-01-18T13:20:26.695Z,92872.00
2023-01-18T13:21:26.685Z,92872.00
2023-01-18T13:22:26.783Z,92875.00
2023-01-18T13:23:26.717Z,92879.00
2023-01-18T13:24:26.663Z,92879.00
2023-01-18T13:25:26.664Z,92879.00
2023-01-18T13:26:26.680Z,92883.00
2023-01-18T13:27:26.633Z,92885.00
2023-01-18T13:28:26.790Z,92889.00
2023-01-18T13:29:26.616Z,92893.00
2023-01-18T13:30:26.605Z,92893.00
2023-01-18T13:31:26.692Z,92897.00
2023-01-18T13:32:26.580Z,92903.00
2023-01-18T13:33:26.784Z,92901.00
2023-01-18T13:34:26.569Z,92903.00
2023-01-18T13:35:26.561Z,92905.00
2023-01-18T13:36:26.551Z,92907.00
2023-01-18T13:37:26.540Z,92905.00
2023-01-18T13:38:40.224Z,92907.00
2023-01-18T13:39:26.524Z,92911.00
2023-01-18T13:40:26.516Z,92915.00
2023-01-18T13:41:26.515Z,92915.00
2023-01-18T13:42:26.520Z,92919.00
2023-01-18T13:43:26.798Z,92917.00
2023-01-18T13:44:26.487Z,92921.00
2023-01-18T13:45:26.487Z,92921.00
2023-01-18T13:46:26.583Z,92926.00
2023-01-18T13:47:26.456Z,92930.00
2023-01-18T13:48:26.459Z,92928.00
2023-01-18T13:49:36.589Z,92934.00
2023-01-18T13:50:26.459Z,92936.00
2023-01-18T13:51:26.451Z,92936.00
2023-01-18T13:52:27.314Z,92940.00
2023-01-18T13:53:26.467Z,92940.00
2023-01-18T13:54:26.391Z,92942.00
2023-01-18T13:55:26.413Z,92942.00
2023-01-18T13:56:26.806Z,92948.00
2023-01-18T13:57:26.364Z,92948.00
2023-01-18T13:58:26.419Z,92950.00
2023-01-18T13:59:26.353Z,92952.00
2023-01-18T14:00:26.388Z,92956.00
2023-01-18T14:01:26.971Z,92956.00
2023-01-18T14:02:26.336Z,92962.00
2023-01-18T14:03:26.380Z,92964.00
2023-01-18T14:04:26.303Z,92968.00
2023-01-18T14:05:26.298Z,92966.00
2023-01-18T14:06:26.306Z,92969.00
2023-01-18T14:07:26.281Z,92973.00
2023-01-18T14:08:26.277Z,92973.00
2023-01-18T14:09:26.271Z,92977.00
2023-01-18T14:10:26.283Z,92981.00
2023-01-18T14:11:26.242Z,92981.00
2023-01-18T14:12:26.243Z,92981.00
2023-01-18T14:13:26.222Z,92981.00
2023-01-18T14:14:26.256Z,92981.00
2023-01-18T14:15:26.213Z,92983.00
2023-01-18T14:16:26.346Z,92985.00
2023-01-18T14:17:26.230Z,92989.00
2023-01-18T14:18:26.182Z,92991.00
2023-01-18T14:19:26.176Z,92993.00
2023-01-18T14:20:26.160Z,92993.00
2023-01-18T14:21:26.299Z,92995.00
2023-01-18T14:22:26.159Z,92997.00
2023-01-18T14:23:26.143Z,92995.00
2023-01-18T14:24:26.133Z,92999.00
2023-01-18T14:25:26.125Z,92999.00
2023-01-18T14:26:26.107Z,93001.00
2023-01-18T14:27:26.103Z,93001.00
2023-01-18T14:28:26.715Z,93001.00
2023-01-18T14:29:26.087Z,93005.00
2023-01-18T14:30:26.153Z,93007.00
2023-01-18T14:31:26.093Z,93007.00
2023-01-18T14:32:26.068Z,93011.00
2023-01-18T14:33:26.056Z,93011.00
2023-01-18T14:34:26.525Z,93015.00
2023-01-18T14:35:26.342Z,93019.00
2023-01-18T14:36:26.044Z,93021.00
2023-01-18T14:37:26.018Z,93023.00
2023-01-18T14:38:26.030Z,93023.00
2023-01-18T14:39:26.036Z,93024.00
2023-01-18T14:40:26.329Z,93026.00
2023-01-18T14:41:25.975Z,93026.00
2023-01-18T14:42:26.309Z,93026.00
2023-01-18T14:43:25.959Z,93028.00
2023-01-18T14:44:25.979Z,93028.00
2023-01-18T14:45:25.933Z,93028.00
2023-01-18T14:46:26.022Z,93032.00
2023-01-18T14:47:26.316Z,93030.00
2023-01-18T14:48:25.907Z,93032.00
2023-01-18T14:49:25.991Z,93036.00
2023-01-18T14:50:25.911Z,93036.00
2023-01-18T14:51:25.886Z,93038.00
2023-01-18T14:52:25.876Z,93038.00
2023-01-18T14:53:25.867Z,93040.00
2023-01-18T14:54:25.990Z,93038.00
2023-01-18T14:55:25.862Z,93040.00
2023-01-18T14:56:25.867Z,93044.00
2023-01-18T14:57:25.835Z,93044.00
2023-01-18T14:58:25.830Z,93042.00
2023-01-18T14:59:25.820Z,93046.00
2023-01-18T15:00:25.840Z,93048.00
2023-01-18T15:01:25.966Z,93048.00
2023-01-18T15:02:26.017Z,93048.00
2023-01-18T15:03:25.784Z,93050.00
2023-01-18T15:04:25.775Z,93050.00
2023-01-18T15:05:25.768Z,93052.00
2023-01-18T15:06:25.749Z,93050.00
2023-01-18T15:07:25.815Z,93052.00
2023-01-18T15:08:25.736Z,93052.00
2023-01-18T15:09:28.074Z,93050.00
2023-01-18T15:10:25.746Z,93052.00
2023-01-18T15:11:25.709Z,93054.00
2023-01-18T15:12:25.704Z,93056.00
2023-01-18T15:13:25.695Z,93056.00
2023-01-18T15:14:25.690Z,93056.00
2023-01-18T15:15:25.676Z,93058.00
2023-01-18T15:16:25.741Z,93064.00
2023-01-18T15:17:25.655Z,93064.00
2023-01-18T15:18:25.676Z,93066.00
2023-01-18T15:19:25.643Z,93068.00
2023-01-18T15:20:25.712Z,93070.00
2023-01-18T15:21:25.620Z,93068.00
2023-01-18T15:22:25.607Z,93073.00
2023-01-18T15:23:25.600Z,93071.00
2023-01-18T15:24:25.602Z,93073.00
2023-01-18T15:25:25.598Z,93070.00
2023-01-18T15:26:25.582Z,93073.00
2023-01-18T15:27:25.573Z,93073.00
2023-01-18T15:28:25.553Z,93073.00
2023-01-18T15:29:26.419Z,93075.00
2023-01-18T15:30:25.569Z,93075.00
2023-01-18T15:31:25.591Z,93077.00
2023-01-18T15:32:25.531Z,93077.00
2023-01-18T15:33:25.532Z,93079.00
2023-01-18T15:34:25.569Z,93077.00
2023-01-18T15:35:25.537Z,93079.00
2023-01-18T15:36:25.490Z,93079.00
2023-01-18T15:37:25.484Z,93079.00
2023-01-18T15:38:25.468Z,93081.00
2023-01-18T15:39:25.496Z,93081.00
2023-01-18T15:40:25.489Z,93081.00
2023-01-18T15:41:25.472Z,93083.00
2023-01-18T15:42:25.447Z,93081.00
2023-01-18T15:43:25.450Z,93083.00
2023-01-18T15:44:25.415Z,93081.00
2023-01-18T15:45:25.442Z,93083.00
2023-01-18T15:46:25.405Z,93083.00
2023-01-18T15:47:25.400Z,93083.00
2023-01-18T15:48:25.396Z,93083.00
2023-01-18T15:49:25.376Z,93085.00
2023-01-18T15:50:25.489Z,93085.00
2023-01-18T15:51:25.357Z,93089.00
2023-01-18T15:52:25.351Z,93089.00
2023-01-18T15:53:25.834Z,93093.00
2023-01-18T15:54:25.331Z,93093.00
2023-01-18T15:55:25.323Z,93093.00
2023-01-18T15:56:25.315Z,93093.00
2023-01-18T15:57:25.301Z,93093.00
2023-01-18T15:58:25.296Z,93101.00
2023-01-18T15:59:25.382Z,93101.00
2023-01-18T16:00:25.275Z,93101.00
2023-01-18T16:01:25.384Z,93105.00
2023-01-18T16:02:25.321Z,93105.00
2023-01-18T16:03:25.256Z,93105.00
2023-01-18T16:04:25.257Z,93108.00
2023-01-18T16:05:25.231Z,93110.00
2023-01-18T16:06:25.322Z,93114.00
2023-01-18T16:07:25.220Z,93118.00
2023-01-18T16:08:25.326Z,93120.00
2023-01-18T16:09:25.202Z,93122.00
2023-01-18T16:10:25.188Z,93128.00
2023-01-18T16:11:25.184Z,93126.00
2023-01-18T16:12:25.171Z,93126.00
2023-01-18T16:13:25.164Z,93128.00
2023-01-18T16:14:25.157Z,93128.00
2023-01-18T16:15:25.157Z,93130.00
2023-01-18T16:16:25.146Z,93132.00
2023-01-18T16:17:25.127Z,93132.00
2023-01-18T16:18:25.120Z,93136.00
2023-01-18T16:19:25.110Z,93138.00
2023-01-18T16:20:25.100Z,93140.00